sensor_id;sensor_type;location;lat;lon;timestamp;P1;durP1;ratioP1;P2;durP2;ratioP2
62010;SDS011;47967;51.756;10.174;2022-07-23T00:03:37;9.17;;;4.67;;
62010;SDS011;47967;51.756;10.174;2022-07-23T00:07:41;7.45;;;4.90;;
62010;SDS011;47967;51.756;10.174;2022-07-23T00:11:44;7.50;;;4.78;;
62010;SDS011;47967;51.756;10.174;2022-07-23T00:15:46;10.73;;;6.20;;
62010;SDS011;47967;51.756;10.174;2022-07-23T00:19:49;7.28;;;4.63;;
62010;SDS011;47967;51.756;10.174;2022-07-23T00:23:53;7.07;;;4.90;;
62010;SDS011;47967;51.756;10.174;2022-07-23T00:27:56;8.18;;;5.18;;
62010;SDS011;47967;51.756;10.174;2022-07-23T00:31:59;9.32;;;5.28;;
62010;SDS011;47967;51.756;10.174;2022-07-23T00:36:01;8.32;;;5.15;;
62010;SDS011;47967;51.756;10.174;2022-07-23T00:40:06;8.70;;;4.80;;
62010;SDS011;47967;51.756;10.174;2022-07-23T00:44:17;10.77;;;4.90;;
62010;SDS011;47967;51.756;10.174;2022-07-23T00:48:21;8.95;;;4.50;;
62010;SDS011;47967;51.756;10.174;2022-07-23T00:52:23;11.07;;;4.90;;
62010;SDS011;47967;51.756;10.174;2022-07-23T00:56:28;10.55;;;5.13;;
62010;SDS011;47967;51.756;10.174;2022-07-23T01:00:32;10.13;;;4.55;;
62010;SDS011;47967;51.756;10.174;2022-07-23T01:04:34;8.82;;;5.78;;
62010;SDS011;47967;51.756;10.174;2022-07-23T01:12:42;10.23;;;5.27;;
62010;SDS011;47967;51.756;10.174;2022-07-23T01:16:45;9.98;;;5.65;;
62010;SDS011;47967;51.756;10.174;2022-07-23T01:20:50;12.30;;;6.47;;
62010;SDS011;47967;51.756;10.174;2022-07-23T01:24:54;10.35;;;6.40;;
62010;SDS011;47967;51.756;10.174;2022-07-23T01:28:59;10.50;;;5.97;;
62010;SDS011;47967;51.756;10.174;2022-07-23T01:33:02;14.38;;;5.85;;
62010;SDS011;47967;51.756;10.174;2022-07-23T01:37:05;10.60;;;6.35;;
62010;SDS011;47967;51.756;10.174;2022-07-23T01:41:10;15.77;;;6.55;;
62010;SDS011;47967;51.756;10.174;2022-07-23T01:45:14;11.07;;;6.20;;
62010;SDS011;47967;51.756;10.174;2022-07-23T01:49:22;14.68;;;7.00;;
62010;SDS011;47967;51.756;10.174;2022-07-23T01:53:50;12.00;;;6.15;;
62010;SDS011;47967;51.756;10.174;2022-07-23T01:57:54;12.83;;;7.00;;
62010;SDS011;47967;51.756;10.174;2022-07-23T02:02:02;16.00;;;6.95;;
62010;SDS011;47967;51.756;10.174;2022-07-23T02:06:07;12.82;;;6.80;;
62010;SDS011;47967;51.756;10.174;2022-07-23T02:10:10;12.82;;;7.50;;
62010;SDS011;47967;51.756;10.174;2022-07-23T02:14:14;12.70;;;6.93;;
62010;SDS011;47967;51.756;10.174;2022-07-23T02:18:16;11.93;;;6.57;;
62010;SDS011;47967;51.756;10.174;2022-07-23T02:22:19;11.47;;;6.37;;
62010;SDS011;47967;51.756;10.174;2022-07-23T02:26:23;9.85;;;6.18;;
62010;SDS011;47967;51.756;10.174;2022-07-23T02:30:28;14.95;;;6.45;;
62010;SDS011;47967;51.756;10.174;2022-07-23T02:34:31;11.25;;;6.55;;
62010;SDS011;47967;51.756;10.174;2022-07-23T02:42:38;8.85;;;5.30;;
62010;SDS011;47967;51.756;10.174;2022-07-23T02:46:42;9.27;;;5.95;;
62010;SDS011;47967;51.756;10.174;2022-07-23T02:50:44;10.45;;;6.00;;
62010;SDS011;47967;51.756;10.174;2022-07-23T02:54:50;13.68;;;6.55;;
62010;SDS011;47967;51.756;10.174;2022-07-23T02:58:53;9.50;;;6.47;;
62010;SDS011;47967;51.756;10.174;2022-07-23T03:02:57;12.25;;;6.43;;
62010;SDS011;47967;51.756;10.174;2022-07-23T03:07:00;11.88;;;6.65;;
62010;SDS011;47967;51.756;10.174;2022-07-23T03:11:02;12.45;;;6.78;;
62010;SDS011;47967;51.756;10.174;2022-07-23T03:15:05;12.88;;;6.80;;
62010;SDS011;47967;51.756;10.174;2022-07-23T03:19:11;14.05;;;6.95;;
62010;SDS011;47967;51.756;10.174;2022-07-23T03:23:15;15.40;;;7.10;;
62010;SDS011;47967;51.756;10.174;2022-07-23T03:27:18;11.73;;;7.38;;
62010;SDS011;47967;51.756;10.174;2022-07-23T03:31:21;14.50;;;7.28;;
62010;SDS011;47967;51.756;10.174;2022-07-23T03:35:25;12.38;;;7.22;;
62010;SDS011;47967;51.756;10.174;2022-07-23T03:39:45;15.98;;;7.30;;
62010;SDS011;47967;51.756;10.174;2022-07-23T03:43:48;14.03;;;7.20;;
62010;SDS011;47967;51.756;10.174;2022-07-23T03:47:50;13.17;;;7.20;;
62010;SDS011;47967;51.756;10.174;2022-07-23T03:51:54;16.55;;;6.45;;
62010;SDS011;47967;51.756;10.174;2022-07-23T03:55:57;12.95;;;6.97;;
62010;SDS011;47967;51.756;10.174;2022-07-23T04:00:00;14.95;;;7.13;;
62010;SDS011;47967;51.756;10.174;2022-07-23T04:04:13;12.93;;;7.13;;
62010;SDS011;47967;51.756;10.174;2022-07-23T04:08:18;13.18;;;7.28;;
62010;SDS011;47967;51.756;10.174;2022-07-23T04:12:24;13.15;;;7.00;;
62010;SDS011;47967;51.756;10.174;2022-07-23T04:16:28;14.63;;;7.90;;
62010;SDS011;47967;51.756;10.174;2022-07-23T04:20:32;15.38;;;7.57;;
62010;SDS011;47967;51.756;10.174;2022-07-23T04:24:43;16.27;;;7.30;;
62010;SDS011;47967;51.756;10.174;2022-07-23T04:28:45;13.32;;;7.72;;
62010;SDS011;47967;51.756;10.174;2022-07-23T04:32:48;16.58;;;7.90;;
62010;SDS011;47967;51.756;10.174;2022-07-23T04:36:55;16.88;;;8.25;;
62010;SDS011;47967;51.756;10.174;2022-07-23T04:41:01;15.48;;;7.43;;
62010;SDS011;47967;51.756;10.174;2022-07-23T04:45:03;12.82;;;7.45;;
62010;SDS011;47967;51.756;10.174;2022-07-23T04:49:13;13.18;;;6.55;;
62010;SDS011;47967;51.756;10.174;2022-07-23T04:53:19;12.75;;;7.03;;
62010;SDS011;47967;51.756;10.174;2022-07-23T04:57:24;12.65;;;6.95;;
62010;SDS011;47967;51.756;10.174;2022-07-23T05:01:27;15.63;;;7.47;;
62010;SDS011;47967;51.756;10.174;2022-07-23T05:05:29;18.10;;;7.50;;
62010;SDS011;47967;51.756;10.174;2022-07-23T05:09:40;14.23;;;7.43;;
62010;SDS011;47967;51.756;10.174;2022-07-23T05:13:44;14.48;;;7.22;;
62010;SDS011;47967;51.756;10.174;2022-07-23T05:17:47;15.98;;;7.05;;
62010;SDS011;47967;51.756;10.174;2022-07-23T05:21:51;14.18;;;7.35;;
62010;SDS011;47967;51.756;10.174;2022-07-23T05:25:54;12.60;;;6.30;;
62010;SDS011;47967;51.756;10.174;2022-07-23T05:30:00;11.73;;;6.68;;
62010;SDS011;47967;51.756;10.174;2022-07-23T05:34:04;13.98;;;7.43;;
62010;SDS011;47967;51.756;10.174;2022-07-23T05:38:09;16.02;;;7.03;;
62010;SDS011;47967;51.756;10.174;2022-07-23T05:42:12;11.52;;;6.82;;
62010;SDS011;47967;51.756;10.174;2022-07-23T05:46:16;13.43;;;6.82;;
62010;SDS011;47967;51.756;10.174;2022-07-23T05:50:24;13.93;;;6.78;;
62010;SDS011;47967;51.756;10.174;2022-07-23T05:54:34;14.48;;;6.75;;
62010;SDS011;47967;51.756;10.174;2022-07-23T05:58:37;12.43;;;6.55;;
62010;SDS011;47967;51.756;10.174;2022-07-23T06:06:45;11.80;;;6.57;;
62010;SDS011;47967;51.756;10.174;2022-07-23T06:10:48;14.13;;;6.57;;
62010;SDS011;47967;51.756;10.174;2022-07-23T06:14:51;10.43;;;6.35;;
62010;SDS011;47967;51.756;10.174;2022-07-23T06:18:55;14.15;;;7.35;;
62010;SDS011;47967;51.756;10.174;2022-07-23T06:23:00;16.55;;;7.03;;
62010;SDS011;47967;51.756;10.174;2022-07-23T06:27:03;11.88;;;6.70;;
62010;SDS011;47967;51.756;10.174;2022-07-23T06:35:40;13.27;;;7.63;;
62010;SDS011;47967;51.756;10.174;2022-07-23T06:39:43;12.05;;;6.85;;
62010;SDS011;47967;51.756;10.174;2022-07-23T06:43:46;12.68;;;7.05;;
62010;SDS011;47967;51.756;10.174;2022-07-23T06:47:50;13.35;;;5.93;;
62010;SDS011;47967;51.756;10.174;2022-07-23T06:51:54;12.70;;;6.60;;
62010;SDS011;47967;51.756;10.174;2022-07-23T06:55:56;12.55;;;5.68;;
62010;SDS011;47967;51.756;10.174;2022-07-23T06:59:59;13.87;;;6.57;;
62010;SDS011;47967;51.756;10.174;2022-07-23T07:04:02;9.40;;;5.32;;
62010;SDS011;47967;51.756;10.174;2022-07-23T07:08:06;11.23;;;5.75;;
62010;SDS011;47967;51.756;10.174;2022-07-23T07:12:08;8.32;;;5.03;;
62010;SDS011;47967;51.756;10.174;2022-07-23T07:16:13;11.07;;;5.20;;
62010;SDS011;47967;51.756;10.174;2022-07-23T07:20:15;7.68;;;4.95;;
62010;SDS011;47967;51.756;10.174;2022-07-23T07:24:19;10.20;;;4.10;;
62010;SDS011;47967;51.756;10.174;2022-07-23T07:28:25;8.77;;;4.18;;
62010;SDS011;47967;51.756;10.174;2022-07-23T07:32:27;9.15;;;4.97;;
62010;SDS011;47967;51.756;10.174;2022-07-23T07:36:50;8.43;;;3.90;;
62010;SDS011;47967;51.756;10.174;2022-07-23T07:40:54;10.52;;;4.28;;
62010;SDS011;47967;51.756;10.174;2022-07-23T07:44:57;8.23;;;4.80;;
62010;SDS011;47967;51.756;10.174;2022-07-23T07:49:00;7.97;;;3.85;;
62010;SDS011;47967;51.756;10.174;2022-07-23T07:53:02;9.18;;;4.82;;
62010;SDS011;47967;51.756;10.174;2022-07-23T07:57:06;9.38;;;4.45;;
62010;SDS011;47967;51.756;10.174;2022-07-23T08:01:09;10.88;;;4.00;;
62010;SDS011;47967;51.756;10.174;2022-07-23T08:05:11;5.35;;;3.75;;
62010;SDS011;47967;51.756;10.174;2022-07-23T08:09:14;5.75;;;3.67;;
62010;SDS011;47967;51.756;10.174;2022-07-23T08:13:18;7.50;;;3.30;;
62010;SDS011;47967;51.756;10.174;2022-07-23T08:17:21;9.25;;;3.80;;
62010;SDS011;47967;51.756;10.174;2022-07-23T08:21:23;8.50;;;4.05;;
62010;SDS011;47967;51.756;10.174;2022-07-23T08:25:27;6.13;;;3.35;;
62010;SDS011;47967;51.756;10.174;2022-07-23T08:29:32;8.52;;;3.58;;
62010;SDS011;47967;51.756;10.174;2022-07-23T08:33:35;8.00;;;4.25;;
62010;SDS011;47967;51.756;10.174;2022-07-23T08:37:37;9.77;;;4.40;;
62010;SDS011;47967;51.756;10.174;2022-07-23T08:41:40;4.63;;;3.15;;
62010;SDS011;47967;51.756;10.174;2022-07-23T08:45:44;5.95;;;3.45;;
62010;SDS011;47967;51.756;10.174;2022-07-23T08:49:49;5.63;;;3.30;;
62010;SDS011;47967;51.756;10.174;2022-07-23T08:53:53;7.88;;;3.30;;
62010;SDS011;47967;51.756;10.174;2022-07-23T08:57:59;6.30;;;3.05;;
62010;SDS011;47967;51.756;10.174;2022-07-23T09:02:02;4.32;;;2.60;;
62010;SDS011;47967;51.756;10.174;2022-07-23T09:06:05;4.25;;;2.58;;
62010;SDS011;47967;51.756;10.174;2022-07-23T09:10:09;5.47;;;2.97;;
62010;SDS011;47967;51.756;10.174;2022-07-23T09:14:13;4.30;;;2.95;;
62010;SDS011;47967;51.756;10.174;2022-07-23T09:18:17;5.82;;;3.10;;
62010;SDS011;47967;51.756;10.174;2022-07-23T09:22:20;7.05;;;3.25;;
62010;SDS011;47967;51.756;10.174;2022-07-23T09:26:30;7.00;;;3.38;;
62010;SDS011;47967;51.756;10.174;2022-07-23T09:30:35;6.80;;;3.05;;
62010;SDS011;47967;51.756;10.174;2022-07-23T09:34:40;7.22;;;3.28;;
62010;SDS011;47967;51.756;10.174;2022-07-23T09:38:51;6.00;;;3.53;;
62010;SDS011;47967;51.756;10.174;2022-07-23T09:46:58;5.93;;;3.53;;
62010;SDS011;47967;51.756;10.174;2022-07-23T09:51:03;6.18;;;3.50;;
62010;SDS011;47967;51.756;10.174;2022-07-23T09:55:06;5.38;;;3.50;;
62010;SDS011;47967;51.756;10.174;2022-07-23T09:59:10;5.07;;;3.03;;
62010;SDS011;47967;51.756;10.174;2022-07-23T10:03:13;6.20;;;3.20;;
62010;SDS011;47967;51.756;10.174;2022-07-23T10:07:40;3.75;;;2.55;;
62010;SDS011;47967;51.756;10.174;2022-07-23T10:12:11;4.80;;;3.15;;
62010;SDS011;47967;51.756;10.174;2022-07-23T10:16:32;4.50;;;2.70;;
62010;SDS011;47967;51.756;10.174;2022-07-23T10:20:36;3.40;;;2.45;;
62010;SDS011;47967;51.756;10.174;2022-07-23T10:33:17;4.82;;;2.70;;
62010;SDS011;47967;51.756;10.174;2022-07-23T10:37:31;3.72;;;2.30;;
62010;SDS011;47967;51.756;10.174;2022-07-23T10:41:39;4.00;;;2.30;;
62010;SDS011;47967;51.756;10.174;2022-07-23T10:45:42;3.95;;;2.70;;
62010;SDS011;47967;51.756;10.174;2022-07-23T10:49:47;3.67;;;2.20;;
62010;SDS011;47967;51.756;10.174;2022-07-23T10:53:53;3.70;;;2.35;;
62010;SDS011;47967;51.756;10.174;2022-07-23T10:57:58;3.47;;;2.50;;
62010;SDS011;47967;51.756;10.174;2022-07-23T11:06:23;4.45;;;2.40;;
62010;SDS011;47967;51.756;10.174;2022-07-23T11:10:31;3.83;;;2.50;;
62010;SDS011;47967;51.756;10.174;2022-07-23T11:19:05;4.63;;;2.42;;
62010;SDS011;47967;51.756;10.174;2022-07-23T11:23:09;2.92;;;2.10;;
62010;SDS011;47967;51.756;10.174;2022-07-23T11:27:11;4.80;;;2.40;;
62010;SDS011;47967;51.756;10.174;2022-07-23T11:31:18;3.28;;;1.90;;
62010;SDS011;47967;51.756;10.174;2022-07-23T11:35:22;5.60;;;2.33;;
62010;SDS011;47967;51.756;10.174;2022-07-23T11:39:27;4.78;;;2.10;;
62010;SDS011;47967;51.756;10.174;2022-07-23T11:43:30;4.13;;;2.50;;
62010;SDS011;47967;51.756;10.174;2022-07-23T11:47:34;3.78;;;2.40;;
62010;SDS011;47967;51.756;10.174;2022-07-23T11:51:37;5.07;;;2.20;;
62010;SDS011;47967;51.756;10.174;2022-07-23T11:55:40;4.13;;;1.90;;
62010;SDS011;47967;51.756;10.174;2022-07-23T11:59:42;3.97;;;1.98;;
62010;SDS011;47967;51.756;10.174;2022-07-23T12:03:50;2.53;;;1.75;;
62010;SDS011;47967;51.756;10.174;2022-07-23T12:07:54;1.98;;;1.80;;
62010;SDS011;47967;51.756;10.174;2022-07-23T12:11:58;4.35;;;2.05;;
62010;SDS011;47967;51.756;10.174;2022-07-23T12:16:01;2.97;;;1.77;;
62010;SDS011;47967;51.756;10.174;2022-07-23T12:20:08;5.72;;;1.70;;
62010;SDS011;47967;51.756;10.174;2022-07-23T12:24:14;3.97;;;1.83;;
62010;SDS011;47967;51.756;10.174;2022-07-23T12:28:16;3.35;;;1.88;;
62010;SDS011;47967;51.756;10.174;2022-07-23T12:32:21;2.28;;;1.60;;
62010;SDS011;47967;51.756;10.174;2022-07-23T12:36:26;5.03;;;1.80;;
62010;SDS011;47967;51.756;10.174;2022-07-23T12:40:44;3.58;;;1.65;;
62010;SDS011;47967;51.756;10.174;2022-07-23T12:45:04;3.50;;;1.63;;
62010;SDS011;47967;51.756;10.174;2022-07-23T12:49:10;3.63;;;1.90;;
62010;SDS011;47967;51.756;10.174;2022-07-23T12:53:33;2.83;;;2.03;;
62010;SDS011;47967;51.756;10.174;2022-07-23T12:57:45;4.15;;;1.90;;
62010;SDS011;47967;51.756;10.174;2022-07-23T13:01:53;2.40;;;1.52;;
62010;SDS011;47967;51.756;10.174;2022-07-23T13:05:59;3.40;;;1.63;;
62010;SDS011;47967;51.756;10.174;2022-07-23T13:10:04;4.13;;;1.88;;
62010;SDS011;47967;51.756;10.174;2022-07-23T13:14:07;4.00;;;1.85;;
62010;SDS011;47967;51.756;10.174;2022-07-23T13:18:10;2.00;;;1.80;;
62010;SDS011;47967;51.756;10.174;2022-07-23T13:22:12;2.35;;;1.70;;
62010;SDS011;47967;51.756;10.174;2022-07-23T13:26:16;4.50;;;1.80;;
62010;SDS011;47967;51.756;10.174;2022-07-23T13:30:19;2.00;;;1.52;;
62010;SDS011;47967;51.756;10.174;2022-07-23T13:34:25;2.08;;;1.63;;
62010;SDS011;47967;51.756;10.174;2022-07-23T13:38:28;2.60;;;2.13;;
62010;SDS011;47967;51.756;10.174;2022-07-23T13:42:32;3.03;;;2.20;;
62010;SDS011;47967;51.756;10.174;2022-07-23T13:46:34;4.38;;;1.63;;
62010;SDS011;47967;51.756;10.174;2022-07-23T13:54:40;2.58;;;1.50;;
62010;SDS011;47967;51.756;10.174;2022-07-23T13:58:44;3.35;;;1.73;;
62010;SDS011;47967;51.756;10.174;2022-07-23T14:02:47;2.15;;;1.50;;
62010;SDS011;47967;51.756;10.174;2022-07-23T14:06:51;1.77;;;1.50;;
62010;SDS011;47967;51.756;10.174;2022-07-23T14:10:55;1.77;;;1.60;;
62010;SDS011;47967;51.756;10.174;2022-07-23T14:15:01;1.80;;;1.55;;
62010;SDS011;47967;51.756;10.174;2022-07-23T14:19:04;3.85;;;1.40;;
62010;SDS011;47967;51.756;10.174;2022-07-23T14:23:07;2.33;;;1.65;;
62010;SDS011;47967;51.756;10.174;2022-07-23T14:27:13;4.15;;;1.70;;
62010;SDS011;47967;51.756;10.174;2022-07-23T14:31:17;2.90;;;1.75;;
62010;SDS011;47967;51.756;10.174;2022-07-23T14:35:21;4.53;;;1.67;;
62010;SDS011;47967;51.756;10.174;2022-07-23T14:39:24;1.40;;;1.30;;
62010;SDS011;47967;51.756;10.174;2022-07-23T14:43:27;2.75;;;1.40;;
62010;SDS011;47967;51.756;10.174;2022-07-23T14:51:34;1.58;;;1.23;;
62010;SDS011;47967;51.756;10.174;2022-07-23T14:55:37;3.05;;;1.60;;
62010;SDS011;47967;51.756;10.174;2022-07-23T15:03:45;1.80;;;1.30;;
62010;SDS011;47967;51.756;10.174;2022-07-23T15:07:48;1.98;;;1.38;;
62010;SDS011;47967;51.756;10.174;2022-07-23T15:11:51;4.32;;;2.58;;
62010;SDS011;47967;51.756;10.174;2022-07-23T15:15:53;4.03;;;1.50;;
62010;SDS011;47967;51.756;10.174;2022-07-23T15:19:58;2.42;;;1.20;;
62010;SDS011;47967;51.756;10.174;2022-07-23T15:24:01;1.42;;;1.33;;
62010;SDS011;47967;51.756;10.174;2022-07-23T15:28:04;1.60;;;1.50;;
62010;SDS011;47967;51.756;10.174;2022-07-23T15:32:09;1.48;;;1.30;;
62010;SDS011;47967;51.756;10.174;2022-07-23T15:36:14;4.47;;;1.50;;
62010;SDS011;47967;51.756;10.174;2022-07-23T15:40:20;1.85;;;1.55;;
62010;SDS011;47967;51.756;10.174;2022-07-23T15:44:23;2.33;;;1.50;;
62010;SDS011;47967;51.756;10.174;2022-07-23T15:48:29;1.33;;;1.13;;
62010;SDS011;47967;51.756;10.174;2022-07-23T15:52:33;2.55;;;1.50;;
62010;SDS011;47967;51.756;10.174;2022-07-23T15:56:39;3.47;;;1.52;;
62010;SDS011;47967;51.756;10.174;2022-07-23T16:00:43;2.38;;;1.60;;
62010;SDS011;47967;51.756;10.174;2022-07-23T16:04:47;2.78;;;1.50;;
62010;SDS011;47967;51.756;10.174;2022-07-23T16:08:52;1.48;;;1.38;;
62010;SDS011;47967;51.756;10.174;2022-07-23T16:13:01;2.08;;;1.50;;
62010;SDS011;47967;51.756;10.174;2022-07-23T16:17:04;1.98;;;1.50;;
62010;SDS011;47967;51.756;10.174;2022-07-23T16:21:07;1.70;;;1.60;;
62010;SDS011;47967;51.756;10.174;2022-07-23T16:25:17;1.98;;;1.30;;
62010;SDS011;47967;51.756;10.174;2022-07-23T16:29:19;1.90;;;1.45;;
62010;SDS011;47967;51.756;10.174;2022-07-23T16:37:24;5.55;;;1.25;;
62010;SDS011;47967;51.756;10.174;2022-07-23T16:45:31;4.32;;;1.70;;
62010;SDS011;47967;51.756;10.174;2022-07-23T16:49:34;1.83;;;1.20;;
62010;SDS011;47967;51.756;10.174;2022-07-23T16:53:37;3.50;;;1.15;;
62010;SDS011;47967;51.756;10.174;2022-07-23T16:57:41;1.30;;;1.20;;
62010;SDS011;47967;51.756;10.174;2022-07-23T17:01:43;1.20;;;1.20;;
62010;SDS011;47967;51.756;10.174;2022-07-23T17:05:46;1.33;;;1.00;;
62010;SDS011;47967;51.756;10.174;2022-07-23T17:09:49;2.53;;;1.40;;
62010;SDS011;47967;51.756;10.174;2022-07-23T17:17:55;3.10;;;1.23;;
62010;SDS011;47967;51.756;10.174;2022-07-23T17:26:00;1.83;;;1.20;;
62010;SDS011;47967;51.756;10.174;2022-07-23T17:30:05;2.65;;;1.30;;
62010;SDS011;47967;51.756;10.174;2022-07-23T17:34:09;1.02;;;0.98;;
62010;SDS011;47967;51.756;10.174;2022-07-23T17:42:14;2.38;;;1.42;;
62010;SDS011;47967;51.756;10.174;2022-07-23T17:50:20;2.17;;;1.40;;
62010;SDS011;47967;51.756;10.174;2022-07-23T17:54:23;1.23;;;1.17;;
62010;SDS011;47967;51.756;10.174;2022-07-23T17:58:26;1.63;;;1.30;;
62010;SDS011;47967;51.756;10.174;2022-07-23T18:06:33;3.20;;;1.30;;
62010;SDS011;47967;51.756;10.174;2022-07-23T18:18:42;3.33;;;1.33;;
62010;SDS011;47967;51.756;10.174;2022-07-23T18:22:45;2.00;;;1.20;;
62010;SDS011;47967;51.756;10.174;2022-07-23T18:26:49;2.75;;;1.05;;
62010;SDS011;47967;51.756;10.174;2022-07-23T18:34:55;3.80;;;1.10;;
62010;SDS011;47967;51.756;10.174;2022-07-23T18:38:58;3.65;;;1.17;;
62010;SDS011;47967;51.756;10.174;2022-07-23T18:43:04;2.15;;;1.20;;
62010;SDS011;47967;51.756;10.174;2022-07-23T18:47:07;2.20;;;1.15;;
62010;SDS011;47967;51.756;10.174;2022-07-23T18:55:13;1.13;;;1.10;;
62010;SDS011;47967;51.756;10.174;2022-07-23T18:59:16;2.88;;;1.20;;
62010;SDS011;47967;51.756;10.174;2022-07-23T19:03:23;1.48;;;1.10;;
62010;SDS011;47967;51.756;10.174;2022-07-23T19:07:27;1.85;;;1.20;;
62010;SDS011;47967;51.756;10.174;2022-07-23T19:11:30;3.20;;;1.25;;
62010;SDS011;47967;51.756;10.174;2022-07-23T19:15:33;1.40;;;1.30;;
62010;SDS011;47967;51.756;10.174;2022-07-23T19:19:36;1.50;;;1.23;;
62010;SDS011;47967;51.756;10.174;2022-07-23T19:23:40;2.72;;;1.50;;
62010;SDS011;47967;51.756;10.174;2022-07-23T19:27:43;2.17;;;1.50;;
62010;SDS011;47967;51.756;10.174;2022-07-23T19:31:45;3.63;;;1.65;;
62010;SDS011;47967;51.756;10.174;2022-07-23T19:35:48;1.50;;;1.40;;
62010;SDS011;47967;51.756;10.174;2022-07-23T19:39:52;5.82;;;1.88;;
62010;SDS011;47967;51.756;10.174;2022-07-23T19:43:55;5.25;;;2.50;;
62010;SDS011;47967;51.756;10.174;2022-07-23T19:47:57;2.40;;;1.77;;
62010;SDS011;47967;51.756;10.174;2022-07-23T19:52:00;1.35;;;1.20;;
62010;SDS011;47967;51.756;10.174;2022-07-23T19:56:05;1.85;;;1.33;;
62010;SDS011;47967;51.756;10.174;2022-07-23T20:00:08;2.28;;;1.10;;
62010;SDS011;47967;51.756;10.174;2022-07-23T20:04:12;1.02;;;1.00;;
62010;SDS011;47967;51.756;10.174;2022-07-23T20:08:15;5.05;;;1.27;;
62010;SDS011;47967;51.756;10.174;2022-07-23T20:12:20;3.90;;;1.30;;
62010;SDS011;47967;51.756;10.174;2022-07-23T20:16:23;3.20;;;1.45;;
62010;SDS011;47967;51.756;10.174;2022-07-23T20:20:25;1.73;;;1.30;;
62010;SDS011;47967;51.756;10.174;2022-07-23T20:24:28;3.97;;;1.40;;
62010;SDS011;47967;51.756;10.174;2022-07-23T20:28:32;1.15;;;1.10;;
62010;SDS011;47967;51.756;10.174;2022-07-23T20:32:35;2.20;;;1.15;;
62010;SDS011;47967;51.756;10.174;2022-07-23T20:36:38;1.88;;;1.30;;
62010;SDS011;47967;51.756;10.174;2022-07-23T20:40:41;3.25;;;1.27;;
62010;SDS011;47967;51.756;10.174;2022-07-23T20:44:48;2.03;;;1.40;;
62010;SDS011;47967;51.756;10.174;2022-07-23T20:48:51;2.20;;;1.38;;
62010;SDS011;47967;51.756;10.174;2022-07-23T20:52:54;3.05;;;1.20;;
62010;SDS011;47967;51.756;10.174;2022-07-23T20:56:57;1.48;;;1.38;;
62010;SDS011;47967;51.756;10.174;2022-07-23T21:01:01;3.50;;;1.55;;
62010;SDS011;47967;51.756;10.174;2022-07-23T21:05:04;3.65;;;1.20;;
62010;SDS011;47967;51.756;10.174;2022-07-23T21:09:08;2.60;;;1.33;;
62010;SDS011;47967;51.756;10.174;2022-07-23T21:13:10;3.00;;;1.50;;
62010;SDS011;47967;51.756;10.174;2022-07-23T21:17:18;3.72;;;1.35;;
62010;SDS011;47967;51.756;10.174;2022-07-23T21:21:21;1.70;;;1.60;;
62010;SDS011;47967;51.756;10.174;2022-07-23T21:25:24;1.88;;;1.70;;
62010;SDS011;47967;51.756;10.174;2022-07-23T21:29:26;2.20;;;1.55;;
62010;SDS011;47967;51.756;10.174;2022-07-23T21:33:32;2.60;;;1.88;;
62010;SDS011;47967;51.756;10.174;2022-07-23T21:37:35;4.13;;;1.63;;
62010;SDS011;47967;51.756;10.174;2022-07-23T21:41:37;3.47;;;1.60;;
62010;SDS011;47967;51.756;10.174;2022-07-23T21:45:40;1.40;;;1.30;;
62010;SDS011;47967;51.756;10.174;2022-07-23T21:49:44;6.45;;;1.35;;
62010;SDS011;47967;51.756;10.174;2022-07-23T21:53:47;3.72;;;1.60;;
62010;SDS011;47967;51.756;10.174;2022-07-23T21:57:49;2.60;;;1.50;;
62010;SDS011;47967;51.756;10.174;2022-07-23T22:01:52;3.75;;;1.52;;
62010;SDS011;47967;51.756;10.174;2022-07-23T22:05:56;3.60;;;1.77;;
62010;SDS011;47967;51.756;10.174;2022-07-23T22:09:59;4.95;;;1.90;;
62010;SDS011;47967;51.756;10.174;2022-07-23T22:14:02;5.57;;;3.50;;
62010;SDS011;47967;51.756;10.174;2022-07-23T22:18:05;3.63;;;3.20;;
62010;SDS011;47967;51.756;10.174;2022-07-23T22:22:09;4.22;;;1.88;;
62010;SDS011;47967;51.756;10.174;2022-07-23T22:26:11;2.47;;;1.80;;
62010;SDS011;47967;51.756;10.174;2022-07-23T22:30:15;3.88;;;1.90;;
62010;SDS011;47967;51.756;10.174;2022-07-23T22:34:19;4.25;;;2.00;;
62010;SDS011;47967;51.756;10.174;2022-07-23T22:38:23;3.73;;;1.97;;
62010;SDS011;47967;51.756;10.174;2022-07-23T22:42:25;1.80;;;1.70;;
62010;SDS011;47967;51.756;10.174;2022-07-23T22:46:28;3.93;;;1.87;;
62010;SDS011;47967;51.756;10.174;2022-07-23T22:50:31;6.88;;;1.60;;
62010;SDS011;47967;51.756;10.174;2022-07-23T22:54:36;2.45;;;1.50;;
62010;SDS011;47967;51.756;10.174;2022-07-23T22:58:38;5.78;;;1.70;;
62010;SDS011;47967;51.756;10.174;2022-07-23T23:02:41;2.43;;;1.57;;
62010;SDS011;47967;51.756;10.174;2022-07-23T23:06:44;1.70;;;1.45;;
62010;SDS011;47967;51.756;10.174;2022-07-23T23:10:48;4.23;;;2.07;;
62010;SDS011;47967;51.756;10.174;2022-07-23T23:14:51;2.55;;;1.77;;
62010;SDS011;47967;51.756;10.174;2022-07-23T23:18:54;2.10;;;1.67;;
62010;SDS011;47967;51.756;10.174;2022-07-23T23:22:56;2.10;;;1.63;;
62010;SDS011;47967;51.756;10.174;2022-07-23T23:27:00;2.60;;;1.80;;
62010;SDS011;47967;51.756;10.174;2022-07-23T23:31:03;1.83;;;1.70;;
62010;SDS011;47967;51.756;10.174;2022-07-23T23:35:06;2.95;;;2.00;;
62010;SDS011;47967;51.756;10.174;2022-07-23T23:43:13;3.47;;;1.70;;
62010;SDS011;47967;51.756;10.174;2022-07-23T23:47:15;2.10;;;1.70;;
62010;SDS011;47967;51.756;10.174;2022-07-23T23:51:18;1.70;;;1.60;;
62010;SDS011;47967;51.756;10.174;2022-07-23T23:55:20;2.90;;;1.87;;
62010;SDS011;47967;51.756;10.174;2022-07-23T23:59:24;1.93;;;1.70;;
